createdAt,value
2023-02-20T00:03:41.435Z,88.06
2023-02-20T00:07:37.939Z,88.35
2023-02-20T00:11:00.386Z,88.52
2023-02-20T00:14:37.990Z,88.65
2023-02-20T00:18:17.433Z,88.75
2023-02-20T00:21:54.623Z,88.76
2023-02-20T00:25:50.053Z,88.54
2023-02-20T00:29:33.427Z,88.42
2023-02-20T00:33:15.981Z,88.46
2023-02-20T00:36:57.110Z,88.55
2023-02-20T00:40:22.066Z,88.47
2023-02-20T00:43:56.961Z,88.66
2023-02-20T00:47:35.139Z,88.62
2023-02-20T00:51:12.481Z,88.73
2023-02-20T00:55:09.411Z,88.55
2023-02-20T00:58:52.473Z,88.46
2023-02-20T01:02:15.743Z,88.31
2023-02-20T01:05:52.554Z,88.21
2023-02-20T01:09:49.062Z,88.36
2023-02-20T01:13:11.673Z,88.50
2023-02-20T01:16:52.672Z,88.68
2023-02-20T01:20:45.678Z,88.84
2023-02-20T01:24:08.944Z,88.86
2023-02-20T01:28:05.120Z,89.13
2023-02-20T01:31:51.091Z,88.94
2023-02-20T01:35:13.488Z,88.99
2023-02-20T01:38:51.731Z,88.91
2023-02-20T01:42:32.077Z,88.77
2023-02-20T01:46:45.036Z,88.65
2023-02-20T01:50:10.235Z,88.61
2023-02-20T01:53:46.151Z,88.81
2023-02-20T01:57:49.528Z,89.11
2023-02-20T02:01:13.215Z,89.14
2023-02-20T02:04:51.392Z,89.36
2023-02-20T02:08:29.757Z,89.47
2023-02-20T02:12:05.690Z,89.22
2023-02-20T02:15:43.071Z,89.10
2023-02-20T02:19:58.173Z,88.77
2023-02-20T02:24:15.305Z,88.71
2023-02-20T02:28:30.036Z,88.68
2023-02-20T02:32:19.754Z,88.69
2023-02-20T02:36:11.097Z,88.70
2023-02-20T02:39:43.194Z,88.93
2023-02-20T02:43:41.009Z,88.88
2023-02-20T02:47:09.946Z,88.95
2023-02-20T02:50:45.565Z,88.68
2023-02-20T02:54:39.622Z,88.69
2023-02-20T02:58:03.727Z,88.62
2023-02-20T03:02:03.511Z,88.33
2023-02-20T03:05:40.287Z,88.58
2023-02-20T03:09:30.936Z,88.63
2023-02-20T03:12:54.793Z,88.82
2023-02-20T03:16:41.521Z,88.84
2023-02-20T03:20:14.750Z,88.84
2023-02-20T03:23:56.574Z,88.77
2023-02-20T03:27:45.202Z,88.65
2023-02-20T03:32:13.278Z,88.47
2023-02-20T03:35:59.081Z,88.28
2023-02-20T03:40:03.581Z,88.43
2023-02-20T03:43:33.502Z,88.71
2023-02-20T03:47:10.890Z,88.79
2023-02-20T03:51:02.071Z,88.72
2023-02-20T03:54:46.255Z,88.89
2023-02-20T03:58:30.997Z,88.54
2023-02-20T04:01:58.708Z,88.37
2023-02-20T04:05:55.325Z,88.36
2023-02-20T04:09:29.169Z,88.57
2023-02-20T04:13:03.737Z,88.79
2023-02-20T04:16:44.876Z,88.73
2023-02-20T04:20:35.351Z,88.41
2023-02-20T04:24:12.849Z,88.24
2023-02-20T04:27:42.450Z,88.20
2023-02-20T04:31:22.074Z,87.95
2023-02-20T04:34:57.902Z,87.83
2023-02-20T04:38:54.120Z,87.97
2023-02-20T04:42:22.121Z,88.04
2023-02-20T04:46:17.660Z,88.11
2023-02-20T04:49:43.654Z,88.16
2023-02-20T04:53:19.906Z,88.34
2023-02-20T04:56:57.620Z,88.40
2023-02-20T05:00:35.314Z,88.61
2023-02-20T05:04:12.907Z,88.65
2023-02-20T05:08:09.521Z,88.88
2023-02-20T05:11:51.249Z,88.79
2023-02-20T05:15:15.118Z,88.69
2023-02-20T05:18:52.758Z,88.60
2023-02-20T05:22:30.091Z,88.44
2023-02-20T05:26:27.252Z,88.35
2023-02-20T05:30:09.974Z,88.30
2023-02-20T05:33:33.345Z,88.45
2023-02-20T05:37:28.670Z,88.46
2023-02-20T05:41:09.833Z,88.50
2023-02-20T05:44:32.581Z,88.48
2023-02-20T05:48:12.029Z,88.41
2023-02-20T05:52:10.827Z,88.38
2023-02-20T05:55:55.094Z,88.35
2023-02-20T05:59:20.063Z,88.28
2023-02-20T06:03:14.967Z,88.15
2023-02-20T06:06:56.440Z,88.23
2023-02-20T06:10:38.327Z,88.08
2023-02-20T06:14:23.405Z,87.94
2023-02-20T06:18:04.889Z,87.81
2023-02-20T06:21:28.233Z,87.40
2023-02-20T06:25:04.916Z,87.37
2023-02-20T06:28:44.338Z,87.14
2023-02-20T06:32:39.428Z,87.17
2023-02-20T06:36:06.304Z,87.36
2023-02-20T06:39:40.076Z,87.63
2023-02-20T06:43:37.155Z,87.77
2023-02-20T06:47:20.001Z,87.59
2023-02-20T06:50:43.778Z,87.01
2023-02-20T06:54:22.354Z,86.57
2023-02-20T06:58:21.560Z,86.43
2023-02-20T07:01:44.763Z,86.27
2023-02-20T07:05:22.495Z,86.48
2023-02-20T07:09:00.060Z,86.52
2023-02-20T07:12:38.559Z,86.67
2023-02-20T07:16:15.716Z,86.22
2023-02-20T07:20:14.328Z,86.01
2023-02-20T07:23:59.536Z,85.14
2023-02-20T07:27:41.850Z,85.26
2023-02-20T07:31:04.580Z,85.53
2023-02-20T07:35:05.732Z,85.73
2023-02-20T07:38:31.575Z,85.59
2023-02-20T07:42:26.675Z,85.26
2023-02-20T07:46:03.550Z,84.96
2023-02-20T07:49:40.354Z,84.62
2023-02-20T07:53:38.733Z,84.62
2023-02-20T07:57:06.777Z,84.71
2023-02-20T08:00:39.947Z,84.61
2023-02-20T08:04:17.831Z,84.78
2023-02-20T08:07:56.757Z,84.25
2023-02-20T08:11:35.527Z,84.09
2023-02-20T08:15:12.345Z,83.38
2023-02-20T08:18:48.345Z,83.62
2023-02-20T08:22:47.712Z,83.65
2023-02-20T08:26:12.262Z,83.63
2023-02-20T08:30:13.052Z,83.57
2023-02-20T08:33:35.398Z,83.23
2023-02-20T08:37:13.092Z,82.59
2023-02-20T08:40:50.791Z,82.71
2023-02-20T08:44:28.574Z,83.40
2023-02-20T08:48:24.919Z,82.76
2023-02-20T08:52:06.585Z,82.51
2023-02-20T08:55:49.371Z,82.31
2023-02-20T08:59:32.930Z,82.49
2023-02-20T09:02:58.116Z,82.88
2023-02-20T09:06:51.841Z,83.01
2023-02-20T09:10:14.022Z,82.66
2023-02-20T09:13:51.658Z,82.37
2023-02-20T09:17:50.161Z,82.26
2023-02-20T09:21:14.851Z,82.21
2023-02-20T09:24:53.376Z,82.35
2023-02-20T09:28:28.072Z,82.74
2023-02-20T09:32:09.205Z,82.13
2023-02-20T09:36:04.259Z,82.20
2023-02-20T09:39:26.848Z,81.82
2023-02-20T09:43:35.436Z,81.75
2023-02-20T09:47:08.794Z,82.29
2023-02-20T09:50:42.744Z,82.26
2023-02-20T09:54:36.935Z,82.51
2023-02-20T09:58:37.391Z,82.42
2023-02-20T10:02:06.114Z,82.43
2023-02-20T10:05:38.099Z,82.21
2023-02-20T10:09:16.163Z,82.18
2023-02-20T10:13:30.298Z,82.32
2023-02-20T10:17:01.606Z,82.65
2023-02-20T10:21:10.221Z,82.61
2023-02-20T10:24:41.423Z,82.29
2023-02-20T10:28:29.712Z,82.27
2023-02-20T10:32:32.083Z,81.73
2023-02-20T10:36:41.276Z,81.88
2023-02-20T10:40:31.832Z,82.15
2023-02-20T10:44:20.300Z,82.15
2023-02-20T10:47:53.007Z,81.91
2023-02-20T10:51:50.914Z,81.18
2023-02-20T10:55:26.628Z,81.52
2023-02-20T10:59:21.627Z,81.73
2023-02-20T11:02:50.778Z,82.08
2023-02-20T11:06:30.600Z,81.91
2023-02-20T11:10:19.040Z,81.64
2023-02-20T11:13:40.852Z,81.43
2023-02-20T11:17:41.078Z,81.49
2023-02-20T11:21:06.140Z,81.57
2023-02-20T11:25:31.540Z,81.77
2023-02-20T11:28:56.752Z,81.82
2023-02-20T11:32:39.070Z,81.46
2023-02-20T11:36:20.950Z,81.25
2023-02-20T11:40:30.876Z,81.37
2023-02-20T11:44:24.714Z,81.20
2023-02-20T11:48:14.167Z,81.65
2023-02-20T11:52:26.010Z,81.49
2023-02-20T11:55:59.664Z,81.28
2023-02-20T11:59:49.261Z,80.54
2023-02-20T12:03:26.337Z,80.28
2023-02-20T12:06:49.918Z,80.30
2023-02-20T12:10:43.279Z,80.10
2023-02-20T12:14:25.652Z,80.46
2023-02-20T12:17:55.463Z,79.84
2023-02-20T12:22:15.285Z,79.39
2023-02-20T12:25:52.544Z,79.36
2023-02-20T12:29:28.407Z,79.20
2023-02-20T12:33:38.061Z,78.98
2023-02-20T12:37:24.721Z,79.07
2023-02-20T12:41:02.751Z,78.57
2023-02-20T12:45:14.141Z,78.37
2023-02-20T12:49:17.458Z,78.68
2023-02-20T12:53:09.145Z,78.67
2023-02-20T12:56:53.643Z,78.64
2023-02-20T13:01:02.966Z,78.69
2023-02-20T13:05:00.029Z,78.38
2023-02-20T13:08:31.848Z,78.03
2023-02-20T13:12:19.088Z,77.62
2023-02-20T13:15:46.245Z,77.32
2023-02-20T13:19:31.298Z,77.17
2023-02-20T13:23:15.131Z,77.17
2023-02-20T13:26:38.212Z,77.03
2023-02-20T13:30:21.526Z,76.56
2023-02-20T13:34:15.245Z,76.50
2023-02-20T13:38:09.269Z,76.23
2023-02-20T13:41:56.137Z,76.38
2023-02-20T13:45:41.436Z,76.42
2023-02-20T13:49:08.971Z,76.74
2023-02-20T13:53:02.497Z,76.97
2023-02-20T13:56:28.249Z,76.85
2023-02-20T14:00:15.464Z,77.25
2023-02-20T14:03:42.794Z,77.38
2023-02-20T14:07:28.191Z,77.71
2023-02-20T14:11:07.535Z,76.84
2023-02-20T14:14:41.820Z,76.66
2023-02-20T14:18:33.198Z,76.59
2023-02-20T14:21:56.020Z,76.52
2023-02-20T14:25:33.502Z,76.62
2023-02-20T14:29:34.980Z,76.64
2023-02-20T14:32:59.757Z,76.12
2023-02-20T14:37:01.744Z,75.60
2023-02-20T14:40:42.689Z,75.55
2023-02-20T14:44:26.096Z,75.80
2023-02-20T14:47:56.541Z,75.45
2023-02-20T14:51:44.818Z,75.57
2023-02-20T14:55:26.839Z,75.56
2023-02-20T14:58:49.701Z,75.52
2023-02-20T15:02:50.390Z,75.27
2023-02-20T15:06:16.266Z,75.66
2023-02-20T15:09:53.977Z,75.72
2023-02-20T15:13:47.486Z,75.88
2023-02-20T15:17:56.244Z,75.77
2023-02-20T15:21:43.300Z,75.57
2023-02-20T15:25:25.355Z,75.73
2023-02-20T15:29:11.497Z,75.80
2023-02-20T15:32:55.452Z,76.20
2023-02-20T15:36:23.156Z,75.95
2023-02-20T15:39:57.164Z,75.82
2023-02-20T15:43:46.809Z,75.57
2023-02-20T15:47:13.275Z,75.68
2023-02-20T15:51:14.435Z,75.40
2023-02-20T15:54:37.420Z,75.75
2023-02-20T15:58:37.590Z,75.37
2023-02-20T16:02:20.782Z,75.33
2023-02-20T16:06:02.353Z,75.57
2023-02-20T16:09:24.653Z,75.78
2023-02-20T16:13:42.837Z,75.79
2023-02-20T16:17:27.880Z,75.57
2023-02-20T16:21:13.828Z,75.50
2023-02-20T16:24:55.342Z,75.61
2023-02-20T16:28:36.533Z,75.59
2023-02-20T16:32:01.901Z,75.57
2023-02-20T16:35:57.844Z,75.60
2023-02-20T16:39:42.556Z,75.64
2023-02-20T16:43:24.276Z,75.60
2023-02-20T16:47:19.742Z,75.90
2023-02-20T16:51:02.378Z,75.93
2023-02-20T16:54:49.028Z,75.61
2023-02-20T16:58:15.038Z,75.76
2023-02-20T17:02:16.098Z,75.87
2023-02-20T17:05:41.845Z,75.85
2023-02-20T17:09:43.079Z,76.13
2023-02-20T17:13:08.004Z,76.30
2023-02-20T17:17:06.418Z,76.41
2023-02-20T17:20:51.298Z,76.14
2023-02-20T17:24:33.835Z,75.96
2023-02-20T17:27:56.178Z,76.13
2023-02-20T17:31:54.181Z,76.27
2023-02-20T17:35:17.272Z,76.03
2023-02-20T17:39:14.984Z,76.06
2023-02-20T17:42:37.099Z,75.99
2023-02-20T17:46:17.274Z,75.79
2023-02-20T17:49:54.342Z,75.87
2023-02-20T17:53:30.113Z,76.10
2023-02-20T17:57:30.009Z,76.17
2023-02-20T18:00:52.808Z,75.82
2023-02-20T18:04:30.440Z,75.79
2023-02-20T18:08:08.426Z,75.78
2023-02-20T18:12:05.016Z,75.91
2023-02-20T18:15:29.547Z,75.85
2023-02-20T18:19:27.615Z,75.91
2023-02-20T18:22:54.712Z,75.61
2023-02-20T18:26:46.641Z,75.12
2023-02-20T18:30:29.938Z,74.94
2023-02-20T18:34:11.465Z,74.76
2023-02-20T18:37:52.691Z,74.73
2023-02-20T18:41:14.624Z,74.65
2023-02-20T18:44:53.800Z,74.67
2023-02-20T18:48:30.110Z,74.42
2023-02-20T18:52:26.876Z,73.83
2023-02-20T18:56:12.810Z,74.18
2023-02-20T18:59:53.673Z,74.26
2023-02-20T19:03:34.790Z,74.03
2023-02-20T19:06:58.578Z,73.98
2023-02-20T19:10:53.508Z,73.68
2023-02-20T19:14:15.636Z,73.89
2023-02-20T19:18:13.236Z,73.72
2023-02-20T19:21:35.426Z,73.70
2023-02-20T19:25:33.208Z,73.76
2023-02-20T19:28:55.348Z,73.84
2023-02-20T19:32:33.062Z,74.18
2023-02-20T19:36:32.544Z,74.21
2023-02-20T19:39:55.080Z,74.13
2023-02-20T19:43:32.734Z,74.22
2023-02-20T19:47:29.070Z,74.26
2023-02-20T19:50:52.569Z,74.42
2023-02-20T19:54:30.067Z,74.49
2023-02-20T19:58:06.770Z,74.41
2023-02-20T20:02:06.348Z,74.33
2023-02-20T20:05:48.570Z,74.27
2023-02-20T20:09:18.597Z,74.52
2023-02-20T20:13:08.842Z,74.35
2023-02-20T20:16:37.743Z,74.36
2023-02-20T20:20:31.193Z,74.45
2023-02-20T20:24:12.355Z,74.78
2023-02-20T20:28:02.116Z,74.41
2023-02-20T20:31:44.258Z,74.33
2023-02-20T20:35:28.225Z,74.15
2023-02-20T20:39:10.057Z,73.93
2023-02-20T20:43:01.355Z,74.27
2023-02-20T20:46:32.243Z,74.51
2023-02-20T20:50:23.194Z,74.10
2023-02-20T20:53:45.668Z,74.28
2023-02-20T20:57:27.228Z,74.12
2023-02-20T21:01:01.128Z,74.55
2023-02-20T21:04:39.747Z,74.61
2023-02-20T21:08:15.928Z,74.76
2023-02-20T21:12:15.933Z,74.59
2023-02-20T21:15:57.233Z,74.62
2023-02-20T21:19:38.598Z,74.80
2023-02-20T21:23:02.207Z,74.66
2023-02-20T21:26:39.371Z,74.47
2023-02-20T21:30:35.396Z,74.63
2023-02-20T21:33:58.611Z,74.86
2023-02-20T21:38:00.123Z,74.73
2023-02-20T21:41:43.157Z,74.63
2023-02-20T21:45:28.737Z,74.51
2023-02-20T21:48:50.913Z,74.33
2023-02-20T21:52:36.175Z,74.49
2023-02-20T21:56:07.109Z,74.92
2023-02-20T21:59:43.871Z,74.77
2023-02-20T22:03:21.917Z,74.43
2023-02-20T22:07:37.108Z,74.64
2023-02-20T22:11:18.802Z,74.78
2023-02-20T22:15:02.425Z,74.55
2023-02-20T22:18:45.382Z,74.56
2023-02-20T22:22:28.134Z,74.35
2023-02-20T22:26:09.718Z,74.25
2023-02-20T22:30:10.321Z,74.27
2023-02-20T22:33:53.802Z,74.04
2023-02-20T22:37:55.446Z,73.67
2023-02-20T22:41:55.800Z,73.55
2023-02-20T22:45:36.611Z,73.95
2023-02-20T22:49:18.193Z,74.16
2023-02-20T22:53:01.857Z,74.19
2023-02-20T22:56:45.590Z,74.17
2023-02-20T23:00:46.230Z,74.20
2023-02-20T23:04:27.971Z,74.21
2023-02-20T23:08:10.084Z,74.06
2023-02-20T23:12:13.870Z,74.05
2023-02-20T23:15:54.849Z,74.05
2023-02-20T23:19:55.453Z,74.43
2023-02-20T23:23:54.924Z,74.20
2023-02-20T23:27:55.555Z,74.13
2023-02-20T23:31:37.235Z,74.08
2023-02-20T23:35:38.369Z,74.61
2023-02-20T23:39:38.687Z,74.61
2023-02-20T23:43:39.699Z,74.59
2023-02-20T23:47:41.618Z,74.69
2023-02-20T23:51:27.299Z,75.11
2023-02-20T23:55:28.301Z,75.45
2023-02-20T23:59:09.965Z,75.24
